sensor_id;sensor_type;location;lat;lon;timestamp;P1;durP1;ratioP1;P2;durP2;ratioP2
32198;SDS011;19221;42.656;21.156;2023-04-06T00:00:50;19.70;;;13.73;;
32198;SDS011;19221;42.656;21.156;2023-04-06T00:03:15;19.92;;;14.13;;
32198;SDS011;19221;42.656;21.156;2023-04-06T00:05:41;18.52;;;13.55;;
32198;SDS011;19221;42.656;21.156;2023-04-06T00:08:07;17.13;;;12.75;;
32198;SDS011;19221;42.656;21.156;2023-04-06T00:10:32;18.42;;;13.65;;
32198;SDS011;19221;42.656;21.156;2023-04-06T00:12:58;19.23;;;14.52;;
32198;SDS011;19221;42.656;21.156;2023-04-06T00:15:24;18.00;;;13.32;;
32198;SDS011;19221;42.656;21.156;2023-04-06T00:17:51;24.13;;;15.10;;
32198;SDS011;19221;42.656;21.156;2023-04-06T00:20:17;19.42;;;14.45;;
32198;SDS011;19221;42.656;21.156;2023-04-06T00:22:43;20.75;;;14.75;;
32198;SDS011;19221;42.656;21.156;2023-04-06T00:25:09;22.02;;;15.40;;
32198;SDS011;19221;42.656;21.156;2023-04-06T00:27:40;21.27;;;13.93;;
32198;SDS011;19221;42.656;21.156;2023-04-06T00:30:06;22.23;;;15.52;;
32198;SDS011;19221;42.656;21.156;2023-04-06T00:32:33;22.92;;;15.50;;
32198;SDS011;19221;42.656;21.156;2023-04-06T00:34:59;23.92;;;16.27;;
32198;SDS011;19221;42.656;21.156;2023-04-06T00:37:25;17.20;;;12.32;;
32198;SDS011;19221;42.656;21.156;2023-04-06T00:39:51;20.48;;;14.10;;
32198;SDS011;19221;42.656;21.156;2023-04-06T00:42:17;17.17;;;12.93;;
32198;SDS011;19221;42.656;21.156;2023-04-06T00:44:43;16.35;;;12.13;;
32198;SDS011;19221;42.656;21.156;2023-04-06T00:47:09;20.50;;;13.00;;
32198;SDS011;19221;42.656;21.156;2023-04-06T00:49:35;18.45;;;13.45;;
32198;SDS011;19221;42.656;21.156;2023-04-06T00:52:00;17.40;;;12.15;;
32198;SDS011;19221;42.656;21.156;2023-04-06T00:54:27;20.60;;;13.50;;
32198;SDS011;19221;42.656;21.156;2023-04-06T00:56:53;19.98;;;13.18;;
32198;SDS011;19221;42.656;21.156;2023-04-06T00:59:18;18.83;;;13.30;;
32198;SDS011;19221;42.656;21.156;2023-04-06T01:01:44;20.90;;;13.80;;
32198;SDS011;19221;42.656;21.156;2023-04-06T01:04:10;22.38;;;14.30;;
32198;SDS011;19221;42.656;21.156;2023-04-06T01:06:36;21.95;;;14.52;;
32198;SDS011;19221;42.656;21.156;2023-04-06T01:09:01;18.15;;;12.77;;
32198;SDS011;19221;42.656;21.156;2023-04-06T01:11:27;18.75;;;12.13;;
32198;SDS011;19221;42.656;21.156;2023-04-06T01:13:53;22.17;;;13.77;;
32198;SDS011;19221;42.656;21.156;2023-04-06T01:16:18;18.35;;;12.38;;
32198;SDS011;19221;42.656;21.156;2023-04-06T01:18:44;26.55;;;16.05;;
32198;SDS011;19221;42.656;21.156;2023-04-06T01:21:10;20.98;;;13.32;;
32198;SDS011;19221;42.656;21.156;2023-04-06T01:23:44;17.98;;;13.40;;
32198;SDS011;19221;42.656;21.156;2023-04-06T01:26:10;18.27;;;11.80;;
32198;SDS011;19221;42.656;21.156;2023-04-06T01:28:36;18.23;;;12.63;;
32198;SDS011;19221;42.656;21.156;2023-04-06T01:31:03;20.40;;;12.55;;
32198;SDS011;19221;42.656;21.156;2023-04-06T01:33:28;17.30;;;11.98;;
32198;SDS011;19221;42.656;21.156;2023-04-06T01:35:54;17.02;;;12.25;;
32198;SDS011;19221;42.656;21.156;2023-04-06T01:38:20;21.08;;;14.25;;
32198;SDS011;19221;42.656;21.156;2023-04-06T01:40:46;21.55;;;14.15;;
32198;SDS011;19221;42.656;21.156;2023-04-06T01:43:12;19.08;;;13.98;;
32198;SDS011;19221;42.656;21.156;2023-04-06T01:45:37;17.20;;;12.65;;
32198;SDS011;19221;42.656;21.156;2023-04-06T01:48:03;17.70;;;12.77;;
32198;SDS011;19221;42.656;21.156;2023-04-06T01:50:29;15.55;;;11.80;;
32198;SDS011;19221;42.656;21.156;2023-04-06T01:52:54;17.38;;;12.05;;
32198;SDS011;19221;42.656;21.156;2023-04-06T01:55:20;18.85;;;12.43;;
32198;SDS011;19221;42.656;21.156;2023-04-06T01:57:46;17.05;;;12.35;;
32198;SDS011;19221;42.656;21.156;2023-04-06T02:00:12;17.75;;;13.55;;
32198;SDS011;19221;42.656;21.156;2023-04-06T02:02:37;18.90;;;13.98;;
32198;SDS011;19221;42.656;21.156;2023-04-06T02:05:03;17.10;;;13.40;;
32198;SDS011;19221;42.656;21.156;2023-04-06T02:07:29;14.68;;;10.13;;
32198;SDS011;19221;42.656;21.156;2023-04-06T02:09:55;15.02;;;11.13;;
32198;SDS011;19221;42.656;21.156;2023-04-06T02:12:21;20.13;;;12.93;;
32198;SDS011;19221;42.656;21.156;2023-04-06T02:14:46;19.92;;;12.43;;
32198;SDS011;19221;42.656;21.156;2023-04-06T02:17:12;19.92;;;14.68;;
32198;SDS011;19221;42.656;21.156;2023-04-06T02:19:38;19.75;;;12.73;;
32198;SDS011;19221;42.656;21.156;2023-04-06T02:22:03;17.33;;;12.50;;
32198;SDS011;19221;42.656;21.156;2023-04-06T02:24:29;20.42;;;13.38;;
32198;SDS011;19221;42.656;21.156;2023-04-06T02:26:55;17.30;;;13.23;;
32198;SDS011;19221;42.656;21.156;2023-04-06T02:29:21;21.40;;;14.88;;
32198;SDS011;19221;42.656;21.156;2023-04-06T02:31:46;23.63;;;15.80;;
32198;SDS011;19221;42.656;21.156;2023-04-06T02:34:12;22.42;;;15.60;;
32198;SDS011;19221;42.656;21.156;2023-04-06T02:36:45;20.58;;;14.27;;
32198;SDS011;19221;42.656;21.156;2023-04-06T02:39:11;18.00;;;13.85;;
32198;SDS011;19221;42.656;21.156;2023-04-06T02:41:38;19.60;;;13.73;;
32198;SDS011;19221;42.656;21.156;2023-04-06T02:44:04;19.75;;;13.45;;
32198;SDS011;19221;42.656;21.156;2023-04-06T02:46:29;18.35;;;13.18;;
32198;SDS011;19221;42.656;21.156;2023-04-06T02:48:55;18.42;;;12.88;;
32198;SDS011;19221;42.656;21.156;2023-04-06T02:51:21;17.13;;;11.98;;
32198;SDS011;19221;42.656;21.156;2023-04-06T02:53:47;18.63;;;13.30;;
32198;SDS011;19221;42.656;21.156;2023-04-06T02:56:12;21.10;;;14.30;;
32198;SDS011;19221;42.656;21.156;2023-04-06T02:58:38;17.52;;;12.90;;
32198;SDS011;19221;42.656;21.156;2023-04-06T03:01:04;22.05;;;14.68;;
32198;SDS011;19221;42.656;21.156;2023-04-06T03:03:30;18.35;;;13.10;;
32198;SDS011;19221;42.656;21.156;2023-04-06T03:05:55;15.43;;;11.13;;
32198;SDS011;19221;42.656;21.156;2023-04-06T03:08:24;19.25;;;13.90;;
32198;SDS011;19221;42.656;21.156;2023-04-06T03:10:50;19.50;;;14.38;;
32198;SDS011;19221;42.656;21.156;2023-04-06T03:13:16;18.10;;;13.98;;
32198;SDS011;19221;42.656;21.156;2023-04-06T03:15:41;18.00;;;12.70;;
32198;SDS011;19221;42.656;21.156;2023-04-06T03:18:07;20.95;;;14.25;;
32198;SDS011;19221;42.656;21.156;2023-04-06T03:20:32;23.85;;;16.30;;
32198;SDS011;19221;42.656;21.156;2023-04-06T03:22:58;26.55;;;16.88;;
32198;SDS011;19221;42.656;21.156;2023-04-06T03:25:24;23.92;;;16.80;;
32198;SDS011;19221;42.656;21.156;2023-04-06T03:27:51;20.48;;;15.02;;
32198;SDS011;19221;42.656;21.156;2023-04-06T03:30:17;23.67;;;16.52;;
32198;SDS011;19221;42.656;21.156;2023-04-06T03:32:43;29.05;;;17.95;;
32198;SDS011;19221;42.656;21.156;2023-04-06T03:35:09;28.13;;;17.02;;
32198;SDS011;19221;42.656;21.156;2023-04-06T03:37:35;21.30;;;15.20;;
32198;SDS011;19221;42.656;21.156;2023-04-06T03:40:00;16.63;;;11.85;;
32198;SDS011;19221;42.656;21.156;2023-04-06T03:42:26;17.80;;;12.57;;
32198;SDS011;19221;42.656;21.156;2023-04-06T03:44:52;17.42;;;12.15;;
32198;SDS011;19221;42.656;21.156;2023-04-06T03:47:19;18.77;;;13.40;;
32198;SDS011;19221;42.656;21.156;2023-04-06T03:49:45;17.73;;;13.73;;
32198;SDS011;19221;42.656;21.156;2023-04-06T03:52:10;17.90;;;12.60;;
32198;SDS011;19221;42.656;21.156;2023-04-06T03:54:36;22.08;;;13.18;;
32198;SDS011;19221;42.656;21.156;2023-04-06T03:57:02;17.73;;;13.38;;
32198;SDS011;19221;42.656;21.156;2023-04-06T03:59:28;16.90;;;13.40;;
32198;SDS011;19221;42.656;21.156;2023-04-06T04:01:53;15.88;;;12.73;;
32198;SDS011;19221;42.656;21.156;2023-04-06T04:04:19;20.40;;;12.95;;
32198;SDS011;19221;42.656;21.156;2023-04-06T04:06:45;18.55;;;13.23;;
32198;SDS011;19221;42.656;21.156;2023-04-06T04:09:11;16.98;;;12.68;;
32198;SDS011;19221;42.656;21.156;2023-04-06T04:11:36;16.88;;;13.00;;
32198;SDS011;19221;42.656;21.156;2023-04-06T04:14:02;20.95;;;13.65;;
32198;SDS011;19221;42.656;21.156;2023-04-06T04:16:28;21.02;;;14.73;;
32198;SDS011;19221;42.656;21.156;2023-04-06T04:18:54;20.02;;;14.15;;
32198;SDS011;19221;42.656;21.156;2023-04-06T04:21:20;18.20;;;13.52;;
32198;SDS011;19221;42.656;21.156;2023-04-06T04:23:46;17.77;;;13.38;;
32198;SDS011;19221;42.656;21.156;2023-04-06T04:26:11;20.70;;;13.43;;
32198;SDS011;19221;42.656;21.156;2023-04-06T04:28:37;23.92;;;14.68;;
32198;SDS011;19221;42.656;21.156;2023-04-06T04:31:03;21.50;;;13.70;;
32198;SDS011;19221;42.656;21.156;2023-04-06T04:33:28;19.27;;;13.98;;
32198;SDS011;19221;42.656;21.156;2023-04-06T04:35:54;19.77;;;13.65;;
32198;SDS011;19221;42.656;21.156;2023-04-06T04:38:20;23.48;;;15.65;;
32198;SDS011;19221;42.656;21.156;2023-04-06T04:40:46;24.80;;;16.92;;
32198;SDS011;19221;42.656;21.156;2023-04-06T04:43:11;20.42;;;14.02;;
32198;SDS011;19221;42.656;21.156;2023-04-06T04:45:37;22.00;;;14.10;;
32198;SDS011;19221;42.656;21.156;2023-04-06T04:48:02;21.73;;;14.90;;
32198;SDS011;19221;42.656;21.156;2023-04-06T04:50:30;22.05;;;15.05;;
32198;SDS011;19221;42.656;21.156;2023-04-06T04:52:56;19.77;;;14.63;;
32198;SDS011;19221;42.656;21.156;2023-04-06T04:55:21;21.25;;;14.95;;
32198;SDS011;19221;42.656;21.156;2023-04-06T04:57:47;20.50;;;14.93;;
32198;SDS011;19221;42.656;21.156;2023-04-06T05:00:13;22.52;;;16.02;;
32198;SDS011;19221;42.656;21.156;2023-04-06T05:02:38;20.38;;;14.27;;
32198;SDS011;19221;42.656;21.156;2023-04-06T05:05:05;23.85;;;14.63;;
32198;SDS011;19221;42.656;21.156;2023-04-06T05:07:30;20.52;;;13.00;;
32198;SDS011;19221;42.656;21.156;2023-04-06T05:09:56;19.77;;;13.98;;
32198;SDS011;19221;42.656;21.156;2023-04-06T05:12:23;23.50;;;14.20;;
32198;SDS011;19221;42.656;21.156;2023-04-06T05:15:00;19.92;;;15.00;;
32198;SDS011;19221;42.656;21.156;2023-04-06T05:17:26;18.25;;;14.00;;
32198;SDS011;19221;42.656;21.156;2023-04-06T05:19:52;23.38;;;15.85;;
32198;SDS011;19221;42.656;21.156;2023-04-06T05:22:17;24.75;;;15.65;;
32198;SDS011;19221;42.656;21.156;2023-04-06T05:24:43;20.88;;;14.43;;
32198;SDS011;19221;42.656;21.156;2023-04-06T05:27:09;25.08;;;19.20;;
32198;SDS011;19221;42.656;21.156;2023-04-06T05:29:35;25.33;;;18.40;;
32198;SDS011;19221;42.656;21.156;2023-04-06T05:32:01;24.35;;;17.17;;
32198;SDS011;19221;42.656;21.156;2023-04-06T05:34:27;20.40;;;14.80;;
32198;SDS011;19221;42.656;21.156;2023-04-06T05:36:52;19.05;;;13.27;;
32198;SDS011;19221;42.656;21.156;2023-04-06T05:39:18;20.23;;;14.57;;
32198;SDS011;19221;42.656;21.156;2023-04-06T05:41:44;22.85;;;15.27;;
32198;SDS011;19221;42.656;21.156;2023-04-06T05:44:09;23.17;;;15.35;;
32198;SDS011;19221;42.656;21.156;2023-04-06T05:46:35;21.63;;;16.33;;
32198;SDS011;19221;42.656;21.156;2023-04-06T05:49:01;26.23;;;17.40;;
32198;SDS011;19221;42.656;21.156;2023-04-06T05:51:26;25.08;;;16.77;;
32198;SDS011;19221;42.656;21.156;2023-04-06T05:53:52;25.83;;;16.45;;
32198;SDS011;19221;42.656;21.156;2023-04-06T05:56:18;20.10;;;13.57;;
32198;SDS011;19221;42.656;21.156;2023-04-06T05:58:44;20.65;;;14.35;;
32198;SDS011;19221;42.656;21.156;2023-04-06T06:01:10;23.95;;;15.60;;
32198;SDS011;19221;42.656;21.156;2023-04-06T06:03:35;22.83;;;15.82;;
32198;SDS011;19221;42.656;21.156;2023-04-06T06:06:02;23.33;;;16.45;;
32198;SDS011;19221;42.656;21.156;2023-04-06T06:08:28;21.30;;;14.80;;
32198;SDS011;19221;42.656;21.156;2023-04-06T06:10:54;20.80;;;15.15;;
32198;SDS011;19221;42.656;21.156;2023-04-06T06:13:20;23.48;;;16.40;;
32198;SDS011;19221;42.656;21.156;2023-04-06T06:15:46;26.08;;;18.30;;
32198;SDS011;19221;42.656;21.156;2023-04-06T06:18:12;24.55;;;16.60;;
32198;SDS011;19221;42.656;21.156;2023-04-06T06:20:37;22.48;;;16.00;;
32198;SDS011;19221;42.656;21.156;2023-04-06T06:23:03;23.45;;;16.40;;
32198;SDS011;19221;42.656;21.156;2023-04-06T06:25:29;27.30;;;17.98;;
32198;SDS011;19221;42.656;21.156;2023-04-06T06:27:56;26.40;;;17.17;;
32198;SDS011;19221;42.656;21.156;2023-04-06T06:30:22;21.65;;;15.48;;
32198;SDS011;19221;42.656;21.156;2023-04-06T06:32:47;25.70;;;18.17;;
32198;SDS011;19221;42.656;21.156;2023-04-06T06:35:13;31.15;;;16.20;;
32198;SDS011;19221;42.656;21.156;2023-04-06T06:37:39;20.50;;;14.38;;
32198;SDS011;19221;42.656;21.156;2023-04-06T06:40:05;26.40;;;16.90;;
32198;SDS011;19221;42.656;21.156;2023-04-06T06:42:31;21.15;;;13.80;;
32198;SDS011;19221;42.656;21.156;2023-04-06T06:44:56;21.77;;;14.20;;
32198;SDS011;19221;42.656;21.156;2023-04-06T06:47:22;20.98;;;15.13;;
32198;SDS011;19221;42.656;21.156;2023-04-06T06:49:48;21.95;;;15.57;;
32198;SDS011;19221;42.656;21.156;2023-04-06T06:52:13;23.33;;;15.10;;
32198;SDS011;19221;42.656;21.156;2023-04-06T06:54:39;23.85;;;16.10;;
32198;SDS011;19221;42.656;21.156;2023-04-06T06:57:05;27.65;;;17.45;;
32198;SDS011;19221;42.656;21.156;2023-04-06T06:59:31;26.10;;;18.33;;
32198;SDS011;19221;42.656;21.156;2023-04-06T07:01:56;24.63;;;17.83;;
32198;SDS011;19221;42.656;21.156;2023-04-06T07:04:22;21.95;;;16.02;;
32198;SDS011;19221;42.656;21.156;2023-04-06T07:06:48;23.05;;;16.13;;
32198;SDS011;19221;42.656;21.156;2023-04-06T07:09:13;22.77;;;15.40;;
32198;SDS011;19221;42.656;21.156;2023-04-06T07:11:39;20.73;;;14.80;;
32198;SDS011;19221;42.656;21.156;2023-04-06T07:14:05;23.75;;;16.77;;
32198;SDS011;19221;42.656;21.156;2023-04-06T07:16:32;27.00;;;17.58;;
32198;SDS011;19221;42.656;21.156;2023-04-06T07:18:58;22.77;;;16.05;;
32198;SDS011;19221;42.656;21.156;2023-04-06T07:21:24;37.65;;;18.65;;
32198;SDS011;19221;42.656;21.156;2023-04-06T07:23:49;23.83;;;16.42;;
32198;SDS011;19221;42.656;21.156;2023-04-06T07:26:16;28.77;;;18.00;;
32198;SDS011;19221;42.656;21.156;2023-04-06T07:28:41;20.13;;;13.82;;
32198;SDS011;19221;42.656;21.156;2023-04-06T07:31:07;20.25;;;13.43;;
32198;SDS011;19221;42.656;21.156;2023-04-06T07:33:33;19.75;;;13.55;;
32198;SDS011;19221;42.656;21.156;2023-04-06T07:35:58;21.70;;;15.27;;
32198;SDS011;19221;42.656;21.156;2023-04-06T07:38:24;23.85;;;15.88;;
32198;SDS011;19221;42.656;21.156;2023-04-06T07:40:51;23.52;;;16.13;;
32198;SDS011;19221;42.656;21.156;2023-04-06T07:43:17;26.27;;;16.02;;
32198;SDS011;19221;42.656;21.156;2023-04-06T07:45:42;17.88;;;12.85;;
32198;SDS011;19221;42.656;21.156;2023-04-06T07:48:09;20.50;;;14.60;;
32198;SDS011;19221;42.656;21.156;2023-04-06T07:50:35;24.08;;;15.20;;
32198;SDS011;19221;42.656;21.156;2023-04-06T07:53:01;23.05;;;14.38;;
32198;SDS011;19221;42.656;21.156;2023-04-06T07:55:28;20.83;;;13.82;;
32198;SDS011;19221;42.656;21.156;2023-04-06T07:57:53;17.23;;;13.18;;
32198;SDS011;19221;42.656;21.156;2023-04-06T08:00:19;19.23;;;13.57;;
32198;SDS011;19221;42.656;21.156;2023-04-06T08:02:45;22.35;;;15.13;;
32198;SDS011;19221;42.656;21.156;2023-04-06T08:05:11;24.98;;;15.70;;
32198;SDS011;19221;42.656;21.156;2023-04-06T08:07:36;25.02;;;15.30;;
32198;SDS011;19221;42.656;21.156;2023-04-06T08:10:02;22.77;;;14.63;;
32198;SDS011;19221;42.656;21.156;2023-04-06T08:12:28;25.13;;;16.20;;
32198;SDS011;19221;42.656;21.156;2023-04-06T08:14:54;25.20;;;16.50;;
32198;SDS011;19221;42.656;21.156;2023-04-06T08:17:20;25.55;;;17.88;;
32198;SDS011;19221;42.656;21.156;2023-04-06T08:19:45;24.23;;;16.80;;
32198;SDS011;19221;42.656;21.156;2023-04-06T08:22:11;26.02;;;17.90;;
32198;SDS011;19221;42.656;21.156;2023-04-06T08:24:37;24.55;;;15.70;;
32198;SDS011;19221;42.656;21.156;2023-04-06T08:27:03;25.67;;;17.67;;
32198;SDS011;19221;42.656;21.156;2023-04-06T08:29:29;24.58;;;16.17;;
32198;SDS011;19221;42.656;21.156;2023-04-06T08:31:55;30.48;;;17.90;;
32198;SDS011;19221;42.656;21.156;2023-04-06T08:34:21;31.77;;;18.90;;
32198;SDS011;19221;42.656;21.156;2023-04-06T08:36:46;25.15;;;18.13;;
32198;SDS011;19221;42.656;21.156;2023-04-06T08:39:12;24.23;;;17.52;;
32198;SDS011;19221;42.656;21.156;2023-04-06T08:41:41;26.33;;;18.50;;
32198;SDS011;19221;42.656;21.156;2023-04-06T08:44:06;27.75;;;17.98;;
32198;SDS011;19221;42.656;21.156;2023-04-06T08:46:32;27.63;;;18.45;;
32198;SDS011;19221;42.656;21.156;2023-04-06T08:48:59;25.20;;;15.85;;
32198;SDS011;19221;42.656;21.156;2023-04-06T08:51:25;24.20;;;18.13;;
32198;SDS011;19221;42.656;21.156;2023-04-06T08:53:54;29.20;;;18.17;;
32198;SDS011;19221;42.656;21.156;2023-04-06T08:56:21;29.45;;;17.23;;
32198;SDS011;19221;42.656;21.156;2023-04-06T08:58:47;32.78;;;19.25;;
32198;SDS011;19221;42.656;21.156;2023-04-06T09:01:12;31.23;;;18.90;;
32198;SDS011;19221;42.656;21.156;2023-04-06T09:03:40;29.40;;;17.33;;
32198;SDS011;19221;42.656;21.156;2023-04-06T09:06:07;23.95;;;16.75;;
32198;SDS011;19221;42.656;21.156;2023-04-06T09:08:33;27.20;;;17.23;;
32198;SDS011;19221;42.656;21.156;2023-04-06T09:11:01;25.02;;;16.73;;
32198;SDS011;19221;42.656;21.156;2023-04-06T09:13:27;25.67;;;18.48;;
32198;SDS011;19221;42.656;21.156;2023-04-06T09:16:02;21.08;;;15.07;;
32198;SDS011;19221;42.656;21.156;2023-04-06T09:18:29;21.98;;;16.02;;
32198;SDS011;19221;42.656;21.156;2023-04-06T09:21:04;29.90;;;15.70;;
32198;SDS011;19221;42.656;21.156;2023-04-06T09:23:30;29.42;;;16.73;;
32198;SDS011;19221;42.656;21.156;2023-04-06T09:26:15;24.27;;;14.70;;
32198;SDS011;19221;42.656;21.156;2023-04-06T09:28:42;25.98;;;15.85;;
32198;SDS011;19221;42.656;21.156;2023-04-06T09:31:08;25.05;;;17.52;;
32198;SDS011;19221;42.656;21.156;2023-04-06T09:33:38;27.65;;;15.48;;
32198;SDS011;19221;42.656;21.156;2023-04-06T09:36:05;22.13;;;14.25;;
32198;SDS011;19221;42.656;21.156;2023-04-06T09:38:31;18.90;;;12.93;;
32198;SDS011;19221;42.656;21.156;2023-04-06T09:40:57;18.00;;;13.13;;
32198;SDS011;19221;42.656;21.156;2023-04-06T09:43:23;22.40;;;13.38;;
32198;SDS011;19221;42.656;21.156;2023-04-06T09:45:50;25.60;;;15.02;;
32198;SDS011;19221;42.656;21.156;2023-04-06T09:48:15;35.53;;;17.38;;
32198;SDS011;19221;42.656;21.156;2023-04-06T09:50:42;30.40;;;16.92;;
32198;SDS011;19221;42.656;21.156;2023-04-06T09:53:07;28.15;;;17.15;;
32198;SDS011;19221;42.656;21.156;2023-04-06T10:00:25;24.42;;;17.08;;
32198;SDS011;19221;42.656;21.156;2023-04-06T10:02:53;25.55;;;17.85;;
32198;SDS011;19221;42.656;21.156;2023-04-06T10:08:13;35.42;;;19.42;;
32198;SDS011;19221;42.656;21.156;2023-04-06T10:10:39;33.95;;;21.92;;
32198;SDS011;19221;42.656;21.156;2023-04-06T10:13:05;35.42;;;21.40;;
32198;SDS011;19221;42.656;21.156;2023-04-06T10:15:31;29.65;;;21.70;;
32198;SDS011;19221;42.656;21.156;2023-04-06T10:17:57;26.23;;;19.15;;
32198;SDS011;19221;42.656;21.156;2023-04-06T10:20:26;26.85;;;18.90;;
32198;SDS011;19221;42.656;21.156;2023-04-06T10:22:55;23.58;;;16.60;;
32198;SDS011;19221;42.656;21.156;2023-04-06T10:25:32;25.35;;;16.92;;
32198;SDS011;19221;42.656;21.156;2023-04-06T10:28:01;24.60;;;17.38;;
32198;SDS011;19221;42.656;21.156;2023-04-06T10:30:30;30.48;;;20.27;;
32198;SDS011;19221;42.656;21.156;2023-04-06T10:32:56;35.85;;;21.08;;
32198;SDS011;19221;42.656;21.156;2023-04-06T10:35:22;27.13;;;18.23;;
32198;SDS011;19221;42.656;21.156;2023-04-06T10:38:02;26.83;;;18.02;;
32198;SDS011;19221;42.656;21.156;2023-04-06T10:40:27;26.67;;;19.02;;
32198;SDS011;19221;42.656;21.156;2023-04-06T10:42:54;29.40;;;16.73;;
32198;SDS011;19221;42.656;21.156;2023-04-06T10:45:21;46.38;;;20.20;;
32198;SDS011;19221;42.656;21.156;2023-04-06T10:47:47;28.10;;;17.00;;
32198;SDS011;19221;42.656;21.156;2023-04-06T10:50:15;35.92;;;20.13;;
32198;SDS011;19221;42.656;21.156;2023-04-06T10:52:43;37.42;;;19.27;;
32198;SDS011;19221;42.656;21.156;2023-04-06T10:55:09;29.30;;;19.70;;
32198;SDS011;19221;42.656;21.156;2023-04-06T10:57:37;23.17;;;15.90;;
32198;SDS011;19221;42.656;21.156;2023-04-06T11:00:04;26.83;;;18.02;;
32198;SDS011;19221;42.656;21.156;2023-04-06T11:02:30;32.75;;;16.65;;
32198;SDS011;19221;42.656;21.156;2023-04-06T11:04:57;32.10;;;19.52;;
32198;SDS011;19221;42.656;21.156;2023-04-06T11:07:25;32.28;;;16.25;;
32198;SDS011;19221;42.656;21.156;2023-04-06T11:09:52;26.77;;;17.08;;
32198;SDS011;19221;42.656;21.156;2023-04-06T11:12:24;23.55;;;16.65;;
32198;SDS011;19221;42.656;21.156;2023-04-06T11:14:57;28.02;;;17.63;;
32198;SDS011;19221;42.656;21.156;2023-04-06T11:17:30;23.35;;;15.45;;
32198;SDS011;19221;42.656;21.156;2023-04-06T11:19:56;30.05;;;18.77;;
32198;SDS011;19221;42.656;21.156;2023-04-06T11:22:21;29.08;;;19.92;;
32198;SDS011;19221;42.656;21.156;2023-04-06T11:24:47;23.02;;;14.98;;
32198;SDS011;19221;42.656;21.156;2023-04-06T11:27:14;22.23;;;15.60;;
32198;SDS011;19221;42.656;21.156;2023-04-06T11:29:41;23.70;;;15.57;;
32198;SDS011;19221;42.656;21.156;2023-04-06T11:32:07;21.05;;;15.18;;
32198;SDS011;19221;42.656;21.156;2023-04-06T11:34:34;22.85;;;16.15;;
32198;SDS011;19221;42.656;21.156;2023-04-06T11:37:06;29.13;;;18.30;;
32198;SDS011;19221;42.656;21.156;2023-04-06T11:39:37;26.63;;;17.70;;
32198;SDS011;19221;42.656;21.156;2023-04-06T11:42:03;23.45;;;16.10;;
32198;SDS011;19221;42.656;21.156;2023-04-06T11:44:29;21.75;;;16.15;;
32198;SDS011;19221;42.656;21.156;2023-04-06T11:46:57;29.95;;;17.98;;
32198;SDS011;19221;42.656;21.156;2023-04-06T11:49:27;23.02;;;16.05;;
32198;SDS011;19221;42.656;21.156;2023-04-06T11:51:53;27.55;;;19.63;;
32198;SDS011;19221;42.656;21.156;2023-04-06T11:54:28;30.10;;;19.77;;
32198;SDS011;19221;42.656;21.156;2023-04-06T11:56:54;27.23;;;16.33;;
32198;SDS011;19221;42.656;21.156;2023-04-06T11:59:21;52.50;;;21.60;;
32198;SDS011;19221;42.656;21.156;2023-04-06T12:01:47;25.75;;;16.33;;
32198;SDS011;19221;42.656;21.156;2023-04-06T12:04:12;21.88;;;16.00;;
32198;SDS011;19221;42.656;21.156;2023-04-06T12:06:38;34.25;;;18.88;;
32198;SDS011;19221;42.656;21.156;2023-04-06T12:09:04;30.73;;;18.48;;
32198;SDS011;19221;42.656;21.156;2023-04-06T12:11:29;28.95;;;14.63;;
32198;SDS011;19221;42.656;21.156;2023-04-06T12:13:55;28.75;;;16.42;;
32198;SDS011;19221;42.656;21.156;2023-04-06T12:16:21;23.10;;;15.18;;
32198;SDS011;19221;42.656;21.156;2023-04-06T12:18:47;24.50;;;15.75;;
32198;SDS011;19221;42.656;21.156;2023-04-06T12:21:12;19.63;;;14.75;;
32198;SDS011;19221;42.656;21.156;2023-04-06T12:23:38;20.08;;;15.05;;
32198;SDS011;19221;42.656;21.156;2023-04-06T12:26:04;24.27;;;16.02;;
32198;SDS011;19221;42.656;21.156;2023-04-06T12:28:30;23.70;;;15.88;;
32198;SDS011;19221;42.656;21.156;2023-04-06T12:30:56;20.95;;;15.70;;
32198;SDS011;19221;42.656;21.156;2023-04-06T12:33:21;21.42;;;15.10;;
32198;SDS011;19221;42.656;21.156;2023-04-06T12:35:47;28.20;;;16.73;;
32198;SDS011;19221;42.656;21.156;2023-04-06T12:38:14;24.17;;;17.00;;
32198;SDS011;19221;42.656;21.156;2023-04-06T12:40:41;25.35;;;17.10;;
32198;SDS011;19221;42.656;21.156;2023-04-06T12:43:07;29.27;;;19.15;;
32198;SDS011;19221;42.656;21.156;2023-04-06T12:45:32;24.88;;;16.42;;
32198;SDS011;19221;42.656;21.156;2023-04-06T12:47:58;23.75;;;16.33;;
32198;SDS011;19221;42.656;21.156;2023-04-06T12:50:24;27.63;;;18.55;;
32198;SDS011;19221;42.656;21.156;2023-04-06T12:52:50;27.70;;;17.90;;
32198;SDS011;19221;42.656;21.156;2023-04-06T12:55:16;27.80;;;17.70;;
32198;SDS011;19221;42.656;21.156;2023-04-06T12:57:42;25.55;;;18.13;;
32198;SDS011;19221;42.656;21.156;2023-04-06T13:00:08;25.35;;;17.95;;
32198;SDS011;19221;42.656;21.156;2023-04-06T13:02:34;27.02;;;18.35;;
32198;SDS011;19221;42.656;21.156;2023-04-06T13:05:01;25.58;;;16.98;;
32198;SDS011;19221;42.656;21.156;2023-04-06T13:07:28;23.23;;;16.33;;
32198;SDS011;19221;42.656;21.156;2023-04-06T13:09:53;21.58;;;15.63;;
32198;SDS011;19221;42.656;21.156;2023-04-06T13:12:19;30.60;;;20.60;;
32198;SDS011;19221;42.656;21.156;2023-04-06T13:14:45;27.73;;;19.23;;
32198;SDS011;19221;42.656;21.156;2023-04-06T13:17:16;29.77;;;19.75;;
32198;SDS011;19221;42.656;21.156;2023-04-06T13:19:42;26.50;;;15.18;;
32198;SDS011;19221;42.656;21.156;2023-04-06T13:22:08;31.02;;;17.75;;
32198;SDS011;19221;42.656;21.156;2023-04-06T13:24:34;26.90;;;17.30;;
32198;SDS011;19221;42.656;21.156;2023-04-06T13:27:00;21.38;;;14.35;;
32198;SDS011;19221;42.656;21.156;2023-04-06T13:29:26;26.13;;;17.30;;
32198;SDS011;19221;42.656;21.156;2023-04-06T13:31:52;26.95;;;16.92;;
32198;SDS011;19221;42.656;21.156;2023-04-06T13:34:18;18.60;;;12.75;;
32198;SDS011;19221;42.656;21.156;2023-04-06T13:36:43;22.92;;;14.90;;
32198;SDS011;19221;42.656;21.156;2023-04-06T13:39:09;21.35;;;14.60;;
32198;SDS011;19221;42.656;21.156;2023-04-06T13:41:35;18.63;;;12.45;;
32198;SDS011;19221;42.656;21.156;2023-04-06T13:44:01;17.30;;;11.57;;
32198;SDS011;19221;42.656;21.156;2023-04-06T13:46:27;20.15;;;12.65;;
32198;SDS011;19221;42.656;21.156;2023-04-06T13:48:53;20.90;;;12.70;;
32198;SDS011;19221;42.656;21.156;2023-04-06T13:51:18;15.95;;;11.20;;
32198;SDS011;19221;42.656;21.156;2023-04-06T13:53:44;16.05;;;10.93;;
32198;SDS011;19221;42.656;21.156;2023-04-06T13:56:10;22.38;;;13.32;;
32198;SDS011;19221;42.656;21.156;2023-04-06T13:58:36;23.38;;;13.27;;
32198;SDS011;19221;42.656;21.156;2023-04-06T14:01:06;18.85;;;12.77;;
32198;SDS011;19221;42.656;21.156;2023-04-06T14:03:32;28.98;;;14.73;;
32198;SDS011;19221;42.656;21.156;2023-04-06T14:05:58;17.65;;;11.43;;
32198;SDS011;19221;42.656;21.156;2023-04-06T14:08:24;18.00;;;11.88;;
32198;SDS011;19221;42.656;21.156;2023-04-06T14:10:50;16.50;;;10.73;;